Time;durP1;ratioP1;P1;durP2;ratioP2;P2;SDS_P1;SDS_P2;PMS_P1;PMS_P2;Temp;Humidity;BMP_temperature;BMP_pressure;BME280_temperature;BME280_humidity;BME280_pressure;Samples;Min_cycle;Max_cycle;Signal;HPM_P1;HPM_P2
2023/01/07 00:01:23;;;;;;;1.77;1.17;;;;;;;;;;5028982;28;20033;-77
2023/01/07 00:03:49;;;;;;;3.47;1.20;;;;;;;;;;5026704;28;20022;-77
2023/01/07 00:06:15;;;;;;;1.57;1.07;;;;;;;;;;5032292;28;20438;-77
2023/01/07 00:08:43;;;;;;;5.03;1.13;;;;;;;;;;5047384;28;20044;-76
2023/01/07 00:11:10;;;;;;;0.87;0.70;;;;;;;;;;5027617;28;20033;-78
2023/01/07 00:13:36;;;;;;;0.77;0.60;;;;;;;;;;5048309;28;20029;-75
2023/01/07 00:16:10;;;;;;;1.77;1.00;;;;;;;;;;5032417;28;20037;-78
2023/01/07 00:18:37;;;;;;;0.93;0.70;;;;;;;;;;5048038;28;20074;-77
2023/01/07 00:21:04;;;;;;;1.10;0.60;;;;;;;;;;5033190;28;20060;-77
2023/01/07 00:23:31;;;;;;;1.47;0.50;;;;;;;;;;5042511;28;20038;-77
2023/01/07 00:26:02;;;;;;;1.10;0.60;;;;;;;;;;5044342;28;20097;-76
2023/01/07 00:28:28;;;;;;;1.50;0.80;;;;;;;;;;5032251;28;20037;-77
2023/01/07 00:31:00;;;;;;;2.37;0.90;;;;;;;;;;5033872;28;20062;-78
2023/01/07 00:33:27;;;;;;;2.35;1.00;;;;;;;;;;5031614;28;20099;-76
2023/01/07 00:36:08;;;;;;;0.97;0.70;;;;;;;;;;5049214;28;20040;-77
2023/01/07 00:38:35;;;;;;;1.30;0.70;;;;;;;;;;5023393;28;20026;-75
2023/01/07 00:41:01;;;;;;;3.60;0.93;;;;;;;;;;5030771;28;20603;-76
2023/01/07 00:43:27;;;;;;;2.27;1.23;;;;;;;;;;5039944;28;20106;-76
2023/01/07 00:45:53;;;;;;;1.83;1.13;;;;;;;;;;5042802;28;20033;-76
2023/01/07 00:48:20;;;;;;;1.80;1.10;;;;;;;;;;5033312;28;20049;-77
2023/01/07 00:50:47;;;;;;;4.67;1.23;;;;;;;;;;5047097;28;20075;-76
2023/01/07 00:53:14;;;;;;;3.40;0.83;;;;;;;;;;5040414;28;20029;-77
2023/01/07 00:55:40;;;;;;;2.43;1.50;;;;;;;;;;5027170;28;21557;-77
2023/01/07 00:58:06;;;;;;;2.93;1.80;;;;;;;;;;5026201;28;20175;-77
2023/01/07 01:00:32;;;;;;;3.50;1.50;;;;;;;;;;5031789;28;20447;-75
2023/01/07 01:03:01;;;;;;;3.43;1.10;;;;;;;;;;5034265;28;20037;-77
2023/01/07 01:05:27;;;;;;;1.10;0.80;;;;;;;;;;5047127;28;20048;-77
2023/01/07 01:07:55;;;;;;;1.07;0.70;;;;;;;;;;5043413;28;20030;-77
2023/01/07 01:10:23;;;;;;;2.23;0.67;;;;;;;;;;5031386;28;20029;-77
2023/01/07 01:12:49;;;;;;;2.40;1.17;;;;;;;;;;5030222;28;20474;-76
2023/01/07 01:15:16;;;;;;;1.10;0.70;;;;;;;;;;5025999;28;20477;-76
2023/01/07 01:17:44;;;;;;;1.07;0.77;;;;;;;;;;5046549;28;20065;-76
2023/01/07 01:20:12;;;;;;;0.60;0.50;;;;;;;;;;5024229;28;20029;-76
2023/01/07 01:22:38;;;;;;;1.00;0.60;;;;;;;;;;5026957;28;20767;-78
2023/01/07 01:25:07;;;;;;;1.40;0.70;;;;;;;;;;5031907;28;20080;-77
2023/01/07 01:27:33;;;;;;;1.60;1.03;;;;;;;;;;5030313;28;20095;-77
2023/01/07 01:29:59;;;;;;;3.00;0.93;;;;;;;;;;5045795;28;20128;-77
2023/01/07 01:32:27;;;;;;;1.67;0.60;;;;;;;;;;5025341;28;20044;-77
2023/01/07 01:34:53;;;;;;;2.50;0.70;;;;;;;;;;5041329;28;20033;-78
2023/01/07 01:37:22;;;;;;;1.73;1.20;;;;;;;;;;5043367;28;20096;-76
2023/01/07 01:39:50;;;;;;;2.10;1.03;;;;;;;;;;5024657;28;20056;-78
2023/01/07 01:42:19;;;;;;;1.17;0.60;;;;;;;;;;5049907;28;20053;-77
2023/01/07 01:45:04;;;;;;;2.20;0.70;;;;;;;;;;5030422;28;20116;-77
2023/01/07 01:47:42;;;;;;;2.27;0.70;;;;;;;;;;5025758;28;20167;-78
2023/01/07 01:50:14;;;;;;;1.60;1.23;;;;;;;;;;5041181;28;20482;-76
2023/01/07 01:52:53;;;;;;;1.15;0.88;;;;;;;;;;5045737;28;20052;-77
2023/01/07 01:55:21;;;;;;;1.40;0.93;;;;;;;;;;5038827;28;20072;-77
2023/01/07 01:57:48;;;;;;;1.77;1.00;;;;;;;;;;5041252;28;20030;-75
2023/01/07 02:00:15;;;;;;;2.57;1.10;;;;;;;;;;5046365;28;20037;-77
2023/01/07 02:02:47;;;;;;;3.20;1.40;;;;;;;;;;5025662;28;20025;-77
2023/01/07 02:05:13;;;;;;;2.53;0.93;;;;;;;;;;5046093;28;20041;-76
2023/01/07 02:07:39;;;;;;;0.60;0.60;;;;;;;;;;5028124;28;20176;-76
2023/01/07 02:10:11;;;;;;;2.27;1.77;;;;;;;;;;5030270;28;20072;-76
2023/01/07 02:12:56;;;;;;;2.72;1.20;;;;;;;;;;5045421;28;20042;-77
2023/01/07 02:15:31;;;;;;;1.80;0.93;;;;;;;;;;5046154;28;20029;-77
2023/01/07 02:18:00;;;;;;;4.10;1.00;;;;;;;;;;5040110;28;20033;-78
2023/01/07 02:20:26;;;;;;;1.53;1.13;;;;;;;;;;5023499;28;20033;-76
2023/01/07 02:23:02;;;;;;;2.40;1.03;;;;;;;;;;5029518;28;20090;-77
2023/01/07 02:25:43;;;;;;;1.30;1.20;;;;;;;;;;5040187;28;20029;-77
2023/01/07 02:28:20;;;;;;;2.67;1.10;;;;;;;;;;5048985;28;20496;-78
2023/01/07 02:30:58;;;;;;;2.87;1.13;;;;;;;;;;5033351;28;20029;-76
2023/01/07 02:33:33;;;;;;;4.70;2.73;;;;;;;;;;5032766;28;20029;-76
2023/01/07 02:36:08;;;;;;;3.50;1.27;;;;;;;;;;5027746;28;20029;-77
2023/01/07 02:38:54;;;;;;;3.67;1.37;;;;;;;;;;5049706;28;20033;-76
2023/01/07 02:41:39;;;;;;;1.23;1.07;;;;;;;;;;5027486;28;20037;-76
2023/01/07 02:44:44;;;;;;;1.50;0.90;;;;;;;;;;5042536;28;20037;-77
2023/01/07 02:47:16;;;;;;;2.23;1.10;;;;;;;;;;5009492;28;20099;-77
2023/01/07 02:49:42;;;;;;;1.83;0.90;;;;;;;;;;5027268;28;20079;-77
2023/01/07 02:52:34;;;;;;;2.03;1.10;;;;;;;;;;5021548;28;20088;-78
2023/01/07 02:55:10;;;;;;;1.17;1.00;;;;;;;;;;5031654;28;20029;-78
2023/01/07 02:57:55;;;;;;;4.63;1.00;;;;;;;;;;5048967;28;21612;-76
2023/01/07 03:00:21;;;;;;;2.43;0.83;;;;;;;;;;5029695;28;20033;-79
2023/01/07 03:02:53;;;;;;;3.40;1.90;;;;;;;;;;5032034;28;20044;-77
2023/01/07 03:05:27;;;;;;;4.95;1.55;;;;;;;;;;5030850;28;20056;-77
2023/01/07 03:08:01;;;;;;;1.50;0.90;;;;;;;;;;5033048;28;20033;-77
2023/01/07 03:10:50;;;;;;;2.37;1.20;;;;;;;;;;5034994;28;20041;-77
2023/01/07 03:13:18;;;;;;;1.93;1.60;;;;;;;;;;5028261;28;20052;-79
2023/01/07 03:15:59;;;;;;;1.30;0.90;;;;;;;;;;5047989;28;20035;-76
2023/01/07 03:18:27;;;;;;;3.20;1.10;;;;;;;;;;5024004;28;20025;-79
2023/01/07 03:20:57;;;;;;;2.43;1.33;;;;;;;;;;5041394;28;20029;-79
2023/01/07 03:23:27;;;;;;;3.93;1.33;;;;;;;;;;5041778;28;20033;-77
2023/01/07 03:25:53;;;;;;;2.90;2.07;;;;;;;;;;5047367;28;20033;-77
2023/01/07 03:28:23;;;;;;;2.20;1.60;;;;;;;;;;5044448;28;20120;-76
2023/01/07 03:30:52;;;;;;;2.83;1.63;;;;;;;;;;5041755;28;20133;-77
2023/01/07 03:33:26;;;;;;;2.07;1.07;;;;;;;;;;5048445;28;20449;-77
2023/01/07 03:35:56;;;;;;;2.50;1.20;;;;;;;;;;5048515;28;20064;-77
2023/01/07 03:38:25;;;;;;;2.37;1.40;;;;;;;;;;5032092;28;20057;-78
2023/01/07 03:40:52;;;;;;;6.80;1.80;;;;;;;;;;5047574;28;20053;-76
2023/01/07 03:43:22;;;;;;;1.53;1.20;;;;;;;;;;5019659;28;20033;-78
2023/01/07 03:45:48;;;;;;;2.00;1.20;;;;;;;;;;5032312;28;20033;-76
2023/01/07 03:48:16;;;;;;;4.13;1.77;;;;;;;;;;5047810;28;20789;-79
2023/01/07 03:50:44;;;;;;;6.70;1.60;;;;;;;;;;5044438;28;20057;-77
2023/01/07 03:53:10;;;;;;;6.30;1.60;;;;;;;;;;5032661;28;20033;-78
2023/01/07 03:55:36;;;;;;;2.27;1.40;;;;;;;;;;5033626;28;20036;-76
2023/01/07 03:58:02;;;;;;;3.17;1.13;;;;;;;;;;5037613;28;20029;-77
2023/01/07 04:00:28;;;;;;;2.87;1.70;;;;;;;;;;5041873;28;20569;-77
2023/01/07 04:02:54;;;;;;;4.63;1.53;;;;;;;;;;5029789;28;20065;-78
2023/01/07 04:05:22;;;;;;;4.33;3.00;;;;;;;;;;5025864;28;20033;-78
2023/01/07 04:07:48;;;;;;;4.30;2.20;;;;;;;;;;5031333;28;20065;-76
2023/01/07 04:10:14;;;;;;;1.60;1.10;;;;;;;;;;5047315;28;20710;-77
2023/01/07 04:12:40;;;;;;;1.60;1.07;;;;;;;;;;5030619;28;20128;-76
2023/01/07 04:15:07;;;;;;;1.57;1.17;;;;;;;;;;5047028;28;20104;-77
2023/01/07 04:17:33;;;;;;;4.23;1.57;;;;;;;;;;5025238;28;20048;-77
2023/01/07 04:19:59;;;;;;;1.30;1.17;;;;;;;;;;5042131;28;20022;-77
2023/01/07 04:22:25;;;;;;;4.23;1.50;;;;;;;;;;5046783;28;20033;-78
2023/01/07 04:24:51;;;;;;;1.30;1.07;;;;;;;;;;5026480;28;20474;-77
2023/01/07 04:27:17;;;;;;;4.70;2.40;;;;;;;;;;5046569;28;20120;-77
2023/01/07 04:29:43;;;;;;;2.23;1.47;;;;;;;;;;5046687;28;20033;-76
2023/01/07 04:32:11;;;;;;;3.90;2.50;;;;;;;;;;5031173;28;20033;-78
2023/01/07 04:34:37;;;;;;;4.30;1.70;;;;;;;;;;5025829;28;20039;-76
2023/01/07 04:37:06;;;;;;;1.90;1.20;;;;;;;;;;5027731;28;20339;-77
2023/01/07 04:39:32;;;;;;;2.90;1.77;;;;;;;;;;5031684;28;20033;-77
2023/01/07 04:41:58;;;;;;;3.07;1.47;;;;;;;;;;5030976;28;20040;-76
2023/01/07 04:44:24;;;;;;;4.20;2.40;;;;;;;;;;5030754;28;20032;-78
2023/01/07 04:46:52;;;;;;;4.20;1.50;;;;;;;;;;5024750;28;20107;-77
2023/01/07 04:49:19;;;;;;;2.50;1.10;;;;;;;;;;5040719;28;20041;-77
2023/01/07 04:51:45;;;;;;;5.23;2.20;;;;;;;;;;5031044;28;20119;-77
2023/01/07 04:54:13;;;;;;;3.43;1.00;;;;;;;;;;5026781;28;21720;-77
2023/01/07 04:56:39;;;;;;;3.43;1.00;;;;;;;;;;5031190;28;20029;-77
2023/01/07 04:59:05;;;;;;;3.80;1.37;;;;;;;;;;5029991;28;20040;-77
2023/01/07 05:01:31;;;;;;;1.87;1.23;;;;;;;;;;5043250;28;20029;-76
2023/01/07 05:03:57;;;;;;;2.53;1.07;;;;;;;;;;5039390;28;20100;-76
2023/01/07 05:06:23;;;;;;;1.83;0.83;;;;;;;;;;5047255;28;20048;-77
2023/01/07 05:08:49;;;;;;;3.53;1.37;;;;;;;;;;5047699;28;20030;-78
2023/01/07 05:11:20;;;;;;;1.37;1.03;;;;;;;;;;5047118;28;20029;-77
2023/01/07 05:13:46;;;;;;;2.63;1.37;;;;;;;;;;5032205;28;20465;-75
2023/01/07 05:16:12;;;;;;;1.57;0.80;;;;;;;;;;5038109;28;20025;-76
2023/01/07 05:18:38;;;;;;;2.53;1.10;;;;;;;;;;5026432;28;20120;-77
2023/01/07 05:21:04;;;;;;;2.70;1.30;;;;;;;;;;5046474;28;20033;-78
2023/01/07 05:23:30;;;;;;;2.30;0.90;;;;;;;;;;5042612;28;20444;-77
2023/01/07 05:25:56;;;;;;;1.10;0.90;;;;;;;;;;5039084;28;20040;-78
2023/01/07 05:28:22;;;;;;;3.17;1.10;;;;;;;;;;5027992;28;20079;-76
2023/01/07 05:30:48;;;;;;;3.40;1.37;;;;;;;;;;5031145;28;20037;-78
2023/01/07 05:33:14;;;;;;;1.33;0.77;;;;;;;;;;5040072;28;20033;-77
2023/01/07 05:35:40;;;;;;;3.10;1.03;;;;;;;;;;5045960;28;20477;-78
2023/01/07 05:38:08;;;;;;;3.53;1.60;;;;;;;;;;5024758;28;20057;-77
2023/01/07 05:40:36;;;;;;;4.90;1.40;;;;;;;;;;5024256;28;20041;-76
2023/01/07 05:43:03;;;;;;;1.53;1.03;;;;;;;;;;5030642;28;20084;-77
2023/01/07 05:45:29;;;;;;;3.27;1.57;;;;;;;;;;5045555;28;20083;-77
2023/01/07 05:47:55;;;;;;;3.57;1.40;;;;;;;;;;5022365;28;20025;-78
2023/01/07 05:50:21;;;;;;;2.23;1.10;;;;;;;;;;5038631;28;20029;-76
2023/01/07 05:52:47;;;;;;;3.40;1.20;;;;;;;;;;5027007;28;20033;-77
2023/01/07 05:55:13;;;;;;;2.77;1.43;;;;;;;;;;5046651;28;20120;-77
2023/01/07 05:57:39;;;;;;;3.67;2.10;;;;;;;;;;5025442;28;20416;-77
2023/01/07 06:00:05;;;;;;;2.63;1.50;;;;;;;;;;5039739;28;20025;-78
2023/01/07 06:02:33;;;;;;;2.90;1.20;;;;;;;;;;5034567;28;20176;-77
2023/01/07 06:04:59;;;;;;;4.43;1.53;;;;;;;;;;5035773;28;20668;-76
2023/01/07 06:07:25;;;;;;;2.60;1.37;;;;;;;;;;5035608;28;20044;-78
2023/01/07 06:09:51;;;;;;;2.07;1.37;;;;;;;;;;5050138;28;20051;-76
2023/01/07 06:12:17;;;;;;;2.07;1.30;;;;;;;;;;5032719;28;20084;-76
2023/01/07 06:14:45;;;;;;;1.97;1.30;;;;;;;;;;5048100;28;20030;-77
2023/01/07 06:17:11;;;;;;;3.33;1.67;;;;;;;;;;5049435;28;20037;-77
2023/01/07 06:19:37;;;;;;;13.17;1.80;;;;;;;;;;5034041;28;20071;-76
2023/01/07 06:22:03;;;;;;;2.30;1.23;;;;;;;;;;5028452;28;20021;-78
2023/01/07 06:24:29;;;;;;;3.57;1.50;;;;;;;;;;5028700;28;20044;-77
2023/01/07 06:26:55;;;;;;;4.07;1.70;;;;;;;;;;5044023;28;20033;-77
2023/01/07 06:29:21;;;;;;;3.70;1.83;;;;;;;;;;5028695;28;20358;-77
2023/01/07 06:31:47;;;;;;;2.27;1.50;;;;;;;;;;5027865;28;20096;-78
2023/01/07 06:34:15;;;;;;;2.67;1.53;;;;;;;;;;5048646;28;20060;-76
2023/01/07 06:36:41;;;;;;;4.57;1.30;;;;;;;;;;5032987;28;20056;-77
2023/01/07 06:39:07;;;;;;;1.83;1.43;;;;;;;;;;5027258;28;20102;-78
2023/01/07 06:41:33;;;;;;;2.57;1.50;;;;;;;;;;5048895;28;20022;-77
2023/01/07 06:43:59;;;;;;;2.63;1.63;;;;;;;;;;5048569;28;20156;-77
2023/01/07 06:46:27;;;;;;;4.03;1.33;;;;;;;;;;5024717;28;20021;-77
2023/01/07 06:48:56;;;;;;;5.33;1.60;;;;;;;;;;5048711;28;20485;-76
2023/01/07 06:51:22;;;;;;;2.57;1.57;;;;;;;;;;5048720;28;20037;-79
2023/01/07 06:53:48;;;;;;;5.17;1.40;;;;;;;;;;5043936;28;20043;-76
2023/01/07 06:56:16;;;;;;;3.87;1.50;;;;;;;;;;5032877;28;20070;-76
2023/01/07 06:58:42;;;;;;;2.00;1.20;;;;;;;;;;5027505;28;20029;-77
2023/01/07 07:01:08;;;;;;;2.10;1.57;;;;;;;;;;5023413;28;20032;-77
2023/01/07 07:03:34;;;;;;;5.47;1.37;;;;;;;;;;5029214;28;20108;-77
2023/01/07 07:06:00;;;;;;;1.63;1.03;;;;;;;;;;5032854;28;20033;-77
2023/01/07 07:08:26;;;;;;;6.37;1.77;;;;;;;;;;5050750;28;20033;-76
2023/01/07 07:10:52;;;;;;;2.33;1.20;;;;;;;;;;5042207;28;20124;-77
2023/01/07 07:13:18;;;;;;;1.77;0.77;;;;;;;;;;5043799;28;20060;-78
2023/01/07 07:15:48;;;;;;;1.63;0.80;;;;;;;;;;5048830;28;20379;-77
2023/01/07 07:18:14;;;;;;;2.30;1.17;;;;;;;;;;5032383;28;20029;-77
2023/01/07 07:20:40;;;;;;;1.47;0.80;;;;;;;;;;5046696;28;20030;-77
2023/01/07 07:23:08;;;;;;;1.87;0.97;;;;;;;;;;5032438;28;20026;-77
2023/01/07 07:25:34;;;;;;;3.57;0.80;;;;;;;;;;5045180;28;20029;-77
2023/01/07 07:28:02;;;;;;;4.13;0.90;;;;;;;;;;5034000;28;20036;-76
2023/01/07 07:30:29;;;;;;;1.03;0.80;;;;;;;;;;5029907;28;20071;-77
2023/01/07 07:32:55;;;;;;;2.10;0.90;;;;;;;;;;5025013;28;20037;-78
2023/01/07 07:35:21;;;;;;;2.50;0.50;;;;;;;;;;5025696;28;20040;-78
2023/01/07 07:37:50;;;;;;;2.87;0.80;;;;;;;;;;5034040;28;20379;-77
2023/01/07 07:40:16;;;;;;;3.07;0.97;;;;;;;;;;5026512;28;20037;-77
2023/01/07 07:42:44;;;;;;;1.30;0.77;;;;;;;;;;5050125;28;20098;-76
2023/01/07 07:45:10;;;;;;;3.80;1.00;;;;;;;;;;5041610;28;20022;-75
2023/01/07 07:47:36;;;;;;;1.93;0.87;;;;;;;;;;5027714;28;20179;-77
2023/01/07 07:50:03;;;;;;;1.43;0.87;;;;;;;;;;5031572;28;21710;-78
2023/01/07 07:52:29;;;;;;;1.57;0.97;;;;;;;;;;5041351;28;20180;-76
2023/01/07 07:54:55;;;;;;;2.57;0.97;;;;;;;;;;5028053;28;20112;-77
2023/01/07 07:57:21;;;;;;;1.60;0.60;;;;;;;;;;5024326;28;20076;-77
2023/01/07 07:59:47;;;;;;;2.47;1.10;;;;;;;;;;5024308;28;20057;-78
2023/01/07 08:02:13;;;;;;;1.80;0.60;;;;;;;;;;5028141;28;20048;-77
2023/01/07 08:04:39;;;;;;;3.33;1.33;;;;;;;;;;5025733;28;20068;-78
2023/01/07 08:07:05;;;;;;;4.23;1.13;;;;;;;;;;5028445;28;20049;-78
2023/01/07 08:09:31;;;;;;;4.50;1.10;;;;;;;;;;5031188;28;20400;-79
2023/01/07 08:11:57;;;;;;;2.10;1.17;;;;;;;;;;5031246;28;21828;-77
2023/01/07 08:14:23;;;;;;;2.50;1.27;;;;;;;;;;5025539;28;20030;-76
2023/01/07 08:16:49;;;;;;;3.30;1.30;;;;;;;;;;5028549;28;20051;-77
2023/01/07 08:19:15;;;;;;;1.73;1.00;;;;;;;;;;5032456;28;20033;-76
2023/01/07 08:21:50;;;;;;;1.97;1.30;;;;;;;;;;5025312;28;20022;-77
2023/01/07 08:24:22;;;;;;;1.73;0.90;;;;;;;;;;5023909;28;20052;-77
2023/01/07 08:26:48;;;;;;;1.97;0.70;;;;;;;;;;5032570;28;20033;-77
2023/01/07 08:29:14;;;;;;;4.53;1.00;;;;;;;;;;5027036;28;20083;-77
2023/01/07 08:31:43;;;;;;;1.33;0.83;;;;;;;;;;5028640;28;20053;-78
2023/01/07 08:34:11;;;;;;;2.07;1.00;;;;;;;;;;5039869;28;20033;-76
2023/01/07 08:36:37;;;;;;;1.73;0.87;;;;;;;;;;5025527;28;20029;-77
2023/01/07 08:39:03;;;;;;;4.80;1.10;;;;;;;;;;5027168;28;20033;-77
2023/01/07 08:41:29;;;;;;;2.93;1.20;;;;;;;;;;5028474;28;20417;-77
2023/01/07 08:43:55;;;;;;;4.10;1.23;;;;;;;;;;5021018;28;20029;-77
2023/01/07 08:46:24;;;;;;;2.93;1.33;;;;;;;;;;5023026;28;20409;-77
2023/01/07 08:48:50;;;;;;;4.87;1.60;;;;;;;;;;5025393;28;20029;-78
2023/01/07 08:51:16;;;;;;;9.07;1.50;;;;;;;;;;5046408;28;20099;-77
2023/01/07 08:53:42;;;;;;;3.27;1.17;;;;;;;;;;5031047;28;20029;-77
2023/01/07 08:56:08;;;;;;;2.70;1.40;;;;;;;;;;5023002;28;22243;-78
2023/01/07 08:58:34;;;;;;;3.20;1.73;;;;;;;;;;5045632;28;20442;-76
2023/01/07 09:01:04;;;;;;;3.73;1.40;;;;;;;;;;5045707;28;20029;-77
2023/01/07 09:03:30;;;;;;;2.53;1.37;;;;;;;;;;5039034;28;20565;-76
2023/01/07 09:05:56;;;;;;;2.80;1.40;;;;;;;;;;5024853;28;20045;-76
2023/01/07 09:08:24;;;;;;;4.77;1.30;;;;;;;;;;5041833;28;20445;-77
2023/01/07 09:10:51;;;;;;;2.63;1.10;;;;;;;;;;5031116;28;20058;-77
2023/01/07 09:13:17;;;;;;;5.63;2.43;;;;;;;;;;5029615;28;20095;-77
2023/01/07 09:15:44;;;;;;;1.80;1.60;;;;;;;;;;5023483;28;20033;-78
2023/01/07 09:18:10;;;;;;;5.20;1.83;;;;;;;;;;5024155;28;20033;-77
2023/01/07 09:20:36;;;;;;;3.57;1.30;;;;;;;;;;5044309;28;20068;-76
2023/01/07 09:23:02;;;;;;;1.57;1.30;;;;;;;;;;5039212;28;20026;-77
2023/01/07 09:25:28;;;;;;;3.10;1.30;;;;;;;;;;5041996;28;20124;-78
2023/01/07 09:27:54;;;;;;;3.27;1.60;;;;;;;;;;5023172;28;20102;-78
2023/01/07 09:30:20;;;;;;;1.83;1.13;;;;;;;;;;5043878;28;20029;-77
2023/01/07 09:32:46;;;;;;;4.07;1.53;;;;;;;;;;5038012;28;20033;-76
2023/01/07 09:35:14;;;;;;;2.77;1.50;;;;;;;;;;5028075;28;20048;-78
2023/01/07 09:37:40;;;;;;;2.90;1.70;;;;;;;;;;5044614;28;20204;-78
2023/01/07 09:40:13;;;;;;;2.80;1.90;;;;;;;;;;5028929;28;20125;-78
2023/01/07 09:42:42;;;;;;;4.60;1.60;;;;;;;;;;5036547;28;20164;-78
2023/01/07 09:45:09;;;;;;;3.23;1.70;;;;;;;;;;5044871;28;20029;-77
2023/01/07 09:47:37;;;;;;;3.70;1.63;;;;;;;;;;5045097;28;20029;-77
2023/01/07 09:50:06;;;;;;;2.63;1.97;;;;;;;;;;5043014;28;20022;-77
2023/01/07 09:52:37;;;;;;;2.27;2.00;;;;;;;;;;5025187;28;20466;-77
2023/01/07 09:55:18;;;;;;;3.20;2.00;;;;;;;;;;5028507;28;20037;-77
2023/01/07 09:57:44;;;;;;;4.93;2.40;;;;;;;;;;5025164;28;20041;-77
2023/01/07 10:00:15;;;;;;;3.43;2.20;;;;;;;;;;5036482;28;20056;-77
2023/01/07 10:03:00;;;;;;;5.73;2.40;;;;;;;;;;5033673;28;21656;-76
2023/01/07 10:05:35;;;;;;;3.30;2.20;;;;;;;;;;5042363;28;20100;-77
2023/01/07 10:08:04;;;;;;;4.33;2.47;;;;;;;;;;5025619;28;20033;-78
2023/01/07 10:10:36;;;;;;;6.70;3.53;;;;;;;;;;5019450;28;20056;-76
2023/01/07 10:13:14;;;;;;;2.88;2.53;;;;;;;;;;5033594;28;20466;-77
2023/01/07 10:15:40;;;;;;;4.50;3.00;;;;;;;;;;5032397;28;20061;-78
2023/01/07 10:18:25;;;;;;;5.23;3.00;;;;;;;;;;5033222;28;20500;-77
2023/01/07 10:21:01;;;;;;;2.40;2.20;;;;;;;;;;5034930;28;20124;-76
2023/01/07 10:23:32;;;;;;;4.83;2.73;;;;;;;;;;5019090;28;21825;-78
2023/01/07 10:25:59;;;;;;;3.40;2.63;;;;;;;;;;5035170;28;20390;-75
2023/01/07 10:28:25;;;;;;;3.43;3.07;;;;;;;;;;5020256;28;20030;-76
2023/01/07 10:30:51;;;;;;;6.03;2.93;;;;;;;;;;5023734;28;20048;-76
2023/01/07 10:33:18;;;;;;;4.93;2.97;;;;;;;;;;5038122;28;20374;-78
2023/01/07 10:35:45;;;;;;;4.37;2.70;;;;;;;;;;5039639;28;20033;-76
2023/01/07 10:38:14;;;;;;;3.77;2.70;;;;;;;;;;5043739;28;20116;-77
2023/01/07 10:40:46;;;;;;;4.60;2.87;;;;;;;;;;5026501;28;20034;-76
2023/01/07 10:43:24;;;;;;;3.50;2.88;;;;;;;;;;5024069;28;20021;-78
2023/01/07 10:45:53;;;;;;;4.63;2.70;;;;;;;;;;5046415;28;20022;-77
2023/01/07 10:48:20;;;;;;;3.13;2.70;;;;;;;;;;5024550;28;20481;-76
2023/01/07 10:51:04;;;;;;;4.37;3.03;;;;;;;;;;5041608;28;20056;-79
2023/01/07 10:53:35;;;;;;;3.23;2.93;;;;;;;;;;5046462;28;20069;-78
2023/01/07 10:56:09;;;;;;;3.30;2.53;;;;;;;;;;5030423;28;20048;-77
2023/01/07 10:58:43;;;;;;;4.13;2.70;;;;;;;;;;5029644;28;20033;-76
2023/01/07 11:01:13;;;;;;;3.43;2.53;;;;;;;;;;5041131;28;20112;-76
2023/01/07 11:03:39;;;;;;;3.40;2.70;;;;;;;;;;5047235;28;20032;-77
2023/01/07 11:06:11;;;;;;;3.47;2.63;;;;;;;;;;5046729;28;20029;-77
2023/01/07 11:08:41;;;;;;;3.60;2.83;;;;;;;;;;5031600;28;20103;-78
2023/01/07 11:11:10;;;;;;;3.43;2.77;;;;;;;;;;5031637;28;20041;-78
2023/01/07 11:13:37;;;;;;;6.70;2.67;;;;;;;;;;5031612;28;20029;-78
2023/01/07 11:16:09;;;;;;;5.70;2.47;;;;;;;;;;5030579;28;20060;-76
2023/01/07 11:18:41;;;;;;;4.10;2.53;;;;;;;;;;5041931;28;20832;-78
2023/01/07 11:21:07;;;;;;;4.97;2.83;;;;;;;;;;5046869;28;20047;-77
2023/01/07 11:23:37;;;;;;;4.70;3.07;;;;;;;;;;5041911;28;20030;-78
2023/01/07 11:26:14;;;;;;;3.10;2.03;;;;;;;;;;5046077;28;20118;-77
2023/01/07 11:28:42;;;;;;;4.33;2.50;;;;;;;;;;5031302;28;20021;-77
2023/01/07 11:31:08;;;;;;;2.20;1.83;;;;;;;;;;5048093;28;20025;-77
2023/01/07 11:33:40;;;;;;;1.70;1.20;;;;;;;;;;5029092;28;20064;-77
2023/01/07 11:36:07;;;;;;;1.30;1.13;;;;;;;;;;5024181;28;20031;-77
2023/01/07 11:38:37;;;;;;;1.30;1.03;;;;;;;;;;5047506;28;20025;-77
2023/01/07 11:41:05;;;;;;;1.10;1.00;;;;;;;;;;5041286;28;20026;-76
2023/01/07 11:43:34;;;;;;;2.93;1.00;;;;;;;;;;5031599;28;20108;-77
2023/01/07 11:46:02;;;;;;;1.13;0.80;;;;;;;;;;5042086;28;20025;-77
2023/01/07 11:48:33;;;;;;;1.40;1.07;;;;;;;;;;5026693;28;20041;-77
2023/01/07 11:51:00;;;;;;;0.80;0.70;;;;;;;;;;5046358;28;20124;-76
2023/01/07 11:53:36;;;;;;;1.70;1.00;;;;;;;;;;5033648;28;20037;-77
2023/01/07 11:56:02;;;;;;;1.20;0.90;;;;;;;;;;5042462;28;20025;-77
2023/01/07 11:58:32;;;;;;;2.73;1.37;;;;;;;;;;5044401;28;20541;-77
2023/01/07 12:01:04;;;;;;;2.80;1.10;;;;;;;;;;5030965;28;21687;-78
2023/01/07 12:03:38;;;;;;;2.50;1.60;;;;;;;;;;5043204;28;20052;-76
2023/01/07 12:06:24;;;;;;;1.77;1.30;;;;;;;;;;5047381;28;20072;-77
2023/01/07 12:08:56;;;;;;;3.00;1.43;;;;;;;;;;5041831;28;20029;-76
2023/01/07 12:11:29;;;;;;;3.72;1.48;;;;;;;;;;5041542;28;20021;-77
2023/01/07 12:13:56;;;;;;;1.93;1.33;;;;;;;;;;5026935;28;20598;-77
2023/01/07 12:16:27;;;;;;;1.60;1.23;;;;;;;;;;5038280;28;20072;-77
2023/01/07 12:18:54;;;;;;;1.57;1.07;;;;;;;;;;5038463;28;20029;-77
2023/01/07 12:21:25;;;;;;;4.27;1.60;;;;;;;;;;5045627;28;20029;-78
2023/01/07 12:24:00;;;;;;;2.17;1.40;;;;;;;;;;5039517;28;20527;-77
2023/01/07 12:26:36;;;;;;;1.33;1.10;;;;;;;;;;5030798;28;20447;-79
2023/01/07 12:29:08;;;;;;;1.40;1.10;;;;;;;;;;5026729;28;20029;-77
2023/01/07 12:31:41;;;;;;;1.42;1.17;;;;;;;;;;5039799;28;20041;-77
2023/01/07 12:34:07;;;;;;;;;;;;;;;;;;5031280;28;20045;-77
2023/01/07 12:36:36;;;;;;;1.50;1.10;;;;;;;;;;5047024;28;19921;-78
2023/01/07 12:39:05;;;;;;;1.37;1.10;;;;;;;;;;5045427;28;20052;-77
2023/01/07 12:41:38;;;;;;;1.33;1.03;;;;;;;;;;5044955;28;20033;-77
2023/01/07 12:44:09;;;;;;;1.93;1.13;;;;;;;;;;5025237;28;20047;-76
2023/01/07 12:46:38;;;;;;;1.33;1.00;;;;;;;;;;5029763;28;20118;-77
2023/01/07 12:49:37;;;;;;;3.00;1.43;;;;;;;;;;5046178;28;20026;-76
2023/01/07 12:52:06;;;;;;;1.90;1.30;;;;;;;;;;5031287;28;20056;-76
2023/01/07 12:54:34;;;;;;;1.27;1.17;;;;;;;;;;5046306;28;20099;-77
2023/01/07 12:57:06;;;;;;;2.03;1.47;;;;;;;;;;5028987;28;20041;-78
2023/01/07 12:59:48;;;;;;;1.80;0.93;;;;;;;;;;5048557;28;20045;-78
2023/01/07 13:02:29;;;;;;;1.98;1.60;;;;;;;;;;5038110;28;20271;-77
2023/01/07 13:05:05;;;;;;;2.03;1.07;;;;;;;;;;5045817;28;20033;-78
2023/01/07 13:07:38;;;;;;;1.60;0.90;;;;;;;;;;5045824;28;20041;-77
2023/01/07 13:10:24;;;;;;;1.88;1.48;;;;;;;;;;5021438;28;20040;-76
2023/01/07 13:12:54;;;;;;;1.30;0.90;;;;;;;;;;5029478;28;20041;-77
2023/01/07 13:15:36;;;;;;;2.30;1.10;;;;;;;;;;5039984;28;20029;-76
2023/01/07 13:18:07;;;;;;;1.15;0.88;;;;;;;;;;5036578;28;20039;-78
2023/01/07 13:20:33;;;;;;;2.70;1.57;;;;;;;;;;5024550;28;20901;-78
2023/01/07 13:23:00;;;;;;;1.97;1.43;;;;;;;;;;5025287;28;20025;-75
2023/01/07 13:25:45;;;;;;;2.17;1.60;;;;;;;;;;5027466;28;20486;-77
2023/01/07 13:28:17;;;;;;;2.93;1.10;;;;;;;;;;5044816;28;20033;-78
2023/01/07 13:30:48;;;;;;;4.68;1.10;;;;;;;;;;5029158;28;20159;-77
2023/01/07 13:33:32;;;;;;;2.83;1.23;;;;;;;;;;5028542;28;20033;-78
2023/01/07 13:35:58;;;;;;;3.33;2.13;;;;;;;;;;5025463;28;20049;-77
2023/01/07 13:38:24;;;;;;;1.83;0.90;;;;;;;;;;5043997;28;20037;-78
2023/01/07 13:40:50;;;;;;;2.80;1.40;;;;;;;;;;5030938;28;20099;-77
2023/01/07 13:43:30;;;;;;;1.87;1.20;;;;;;;;;;5024084;28;20048;-77
2023/01/07 13:45:57;;;;;;;2.53;1.60;;;;;;;;;;5025699;28;20040;-76
2023/01/07 13:48:24;;;;;;;1.63;1.10;;;;;;;;;;5037999;28;20049;-76
2023/01/07 13:51:17;;;;;;;3.20;1.73;;;;;;;;;;5043288;28;20122;-78
2023/01/07 13:53:45;;;;;;;2.30;1.48;;;;;;;;;;5040919;28;20110;-77
2023/01/07 13:56:17;;;;;;;1.77;1.27;;;;;;;;;;5037861;28;21036;-77
2023/01/07 13:58:44;;;;;;;1.77;1.50;;;;;;;;;;5038854;28;20121;-77
2023/01/07 14:01:12;;;;;;;2.13;1.70;;;;;;;;;;5022464;28;20358;-77
2023/01/07 14:03:45;;;;;;;4.27;1.70;;;;;;;;;;5044724;28;20707;-78
2023/01/07 14:06:20;;;;;;;3.27;1.80;;;;;;;;;;5030117;28;20083;-78
2023/01/07 14:08:49;;;;;;;2.13;1.30;;;;;;;;;;5037474;28;20033;-78
2023/01/07 14:11:16;;;;;;;2.00;1.47;;;;;;;;;;5044591;28;20124;-79
2023/01/07 14:13:44;;;;;;;2.17;1.47;;;;;;;;;;5028472;28;20403;-78
2023/01/07 14:16:13;;;;;;;2.40;1.90;;;;;;;;;;5031714;28;20048;-78
2023/01/07 14:18:59;;;;;;;3.30;1.97;;;;;;;;;;5026461;28;20033;-79
2023/01/07 14:21:25;;;;;;;5.47;3.43;;;;;;;;;;5035867;28;20128;-78
2023/01/07 14:24:00;;;;;;;6.27;1.63;;;;;;;;;;5048669;28;20417;-77
2023/01/07 14:26:32;;;;;;;7.77;4.10;;;;;;;;;;5032073;28;20455;-79
2023/01/07 14:29:16;;;;;;;4.25;1.88;;;;;;;;;;5044453;28;20275;-78
2023/01/07 14:31:42;;;;;;;2.97;1.67;;;;;;;;;;5026387;28;20056;-77
2023/01/07 14:34:16;;;;;;;2.80;1.80;;;;;;;;;;5043690;28;20095;-77
2023/01/07 14:37:01;;;;;;;4.63;2.43;;;;;;;;;;5027982;28;20033;-77
2023/01/07 14:39:37;;;;;;;3.17;1.60;;;;;;;;;;5049626;28;20859;-77
2023/01/07 14:42:19;;;;;;;3.40;1.90;;;;;;;;;;5048707;28;20073;-78
2023/01/07 14:44:45;;;;;;;2.80;1.83;;;;;;;;;;5042703;28;20029;-77
2023/01/07 14:47:12;;;;;;;4.67;1.50;;;;;;;;;;5040244;28;20120;-77
2023/01/07 14:49:51;;;;;;;2.53;1.77;;;;;;;;;;5033187;28;20041;-77
2023/01/07 14:52:31;;;;;;;4.60;1.73;;;;;;;;;;5043674;28;20172;-78
2023/01/07 14:54:57;;;;;;;4.70;1.97;;;;;;;;;;5024073;28;20120;-78
2023/01/07 14:57:42;;;;;;;2.10;1.40;;;;;;;;;;5028263;28;20128;-78